createdAt,value
2018-09-20T00:56:22.015Z,21.6
2018-09-20T00:57:12.173Z,21.6
2018-09-20T00:58:01.430Z,21.6
2018-09-20T00:58:51.992Z,21.6
2018-09-20T00:59:41.800Z,21.6
2018-09-20T01:00:33.063Z,21.6
2018-09-20T01:01:21.918Z,21.7
2018-09-20T01:02:12.242Z,21.7
2018-09-20T01:03:02.681Z,21.7
2018-09-20T01:03:51.794Z,21.7
2018-09-20T01:04:42.200Z,21.7
2018-09-20T01:05:32.208Z,21.7
2018-09-20T01:06:23.137Z,21.8
2018-09-20T01:07:12.107Z,21.8
2018-09-20T01:08:02.742Z,21.8
2018-09-20T01:08:52.462Z,21.8
2018-09-20T01:09:42.522Z,21.8
2018-09-20T01:10:32.884Z,21.8
2018-09-20T01:11:22.352Z,21.8
2018-09-20T01:12:13.297Z,21.8
2018-09-20T01:13:03.589Z,21.8
2018-09-20T01:13:52.549Z,21.8
2018-09-20T01:14:43.520Z,21.8
2018-09-20T01:15:33.215Z,21.8
2018-09-20T01:16:23.242Z,21.8
2018-09-20T01:17:13.666Z,21.8
2018-09-20T01:18:03.747Z,21.8
2018-09-20T01:18:52.952Z,21.8
2018-09-20T01:19:43.542Z,21.8
2018-09-20T01:20:33.919Z,21.8
2018-09-20T01:21:23.996Z,21.8
2018-09-20T01:22:13.424Z,21.8
2018-09-20T01:23:03.211Z,21.8
2018-09-20T01:23:53.586Z,21.8
2018-09-20T01:24:43.831Z,21.8
2018-09-20T01:25:33.499Z,21.8
2018-09-20T01:26:23.861Z,21.8
2018-09-20T01:27:14.111Z,21.8
2018-09-20T01:28:04.049Z,21.8
2018-09-20T01:28:54.284Z,21.8
2018-09-20T01:29:44.578Z,21.8
2018-09-20T01:30:34.071Z,21.8
2018-09-20T01:31:25.003Z,21.8
2018-09-20T01:32:15.088Z,21.8
2018-09-20T01:33:04.055Z,21.8
2018-09-20T01:33:55.185Z,21.8
2018-09-20T01:34:44.976Z,21.8
2018-09-20T01:35:36.582Z,21.8
2018-09-20T01:36:24.920Z,21.7
2018-09-20T01:37:15.138Z,21.7
2018-09-20T01:38:04.656Z,21.7
2018-09-20T01:38:54.410Z,21.7
2018-09-20T01:39:44.801Z,21.7
2018-09-20T01:40:35.136Z,21.7
2018-09-20T01:41:24.668Z,21.6
2018-09-20T01:42:14.980Z,21.6
2018-09-20T01:43:04.825Z,21.6
2018-09-20T01:43:55.445Z,21.6
2018-09-20T01:44:45.455Z,21.6
2018-09-20T01:45:35.215Z,21.6
2018-09-20T01:46:25.572Z,21.6
2018-09-20T01:47:15.604Z,21.6
2018-09-20T01:48:04.833Z,21.6
2018-09-20T01:48:55.462Z,21.6
2018-09-20T01:49:45.517Z,21.6
2018-09-20T01:50:35.319Z,21.6
2018-09-20T01:51:26.252Z,21.6
2018-09-20T01:52:15.904Z,21.6
2018-09-20T01:53:06.062Z,21.6
2018-09-20T01:53:56.421Z,21.6
2018-09-20T01:54:45.677Z,21.6
2018-09-20T01:55:36.221Z,21.6
2018-09-20T01:56:26.532Z,21.6
2018-09-20T01:57:17.124Z,21.6
2018-09-20T01:58:06.122Z,21.6
2018-09-20T01:58:56.769Z,21.6
2018-09-20T01:59:45.722Z,21.6
2018-09-20T02:00:36.876Z,21.6
2018-09-20T02:01:26.446Z,21.6
2018-09-20T02:02:16.186Z,21.6
2018-09-20T02:03:06.263Z,21.6
2018-09-20T02:03:56.894Z,21.6
2018-09-20T02:04:46.660Z,21.6
2018-09-20T02:05:36.436Z,21.6
2018-09-20T02:06:27.026Z,21.6
2018-09-20T02:07:17.379Z,21.6
2018-09-20T02:08:07.171Z,21.6
2018-09-20T02:08:57.263Z,21.6
2018-09-20T02:09:47.284Z,21.6
2018-09-20T02:10:37.363Z,21.6
2018-09-20T02:11:27.121Z,21.6
2018-09-20T02:12:17.497Z,21.6
2018-09-20T02:13:07.223Z,21.6
2018-09-20T02:13:57.599Z,21.6
2018-09-20T02:14:46.855Z,21.6
2018-09-20T02:15:37.725Z,21.6
2018-09-20T02:16:27.476Z,21.6
2018-09-20T02:17:18.141Z,21.5
2018-09-20T02:18:07.898Z,21.6
2018-09-20T02:18:57.420Z,21.6
2018-09-20T02:19:48.305Z,21.6
2018-09-20T02:20:38.175Z,21.6
2018-09-20T02:21:28.165Z,21.5
2018-09-20T02:22:16.844Z,21.6
2018-09-20T02:23:08.376Z,21.6
2018-09-20T02:23:57.557Z,21.6
2018-09-20T02:24:47.617Z,21.6
2018-09-20T02:25:38.233Z,21.6
2018-09-20T02:26:28.806Z,21.6
2018-09-20T02:27:18.629Z,21.5
2018-09-20T02:28:08.467Z,21.5
2018-09-20T02:28:58.165Z,21.5
2018-09-20T02:29:49.038Z,21.5
2018-09-20T02:30:38.663Z,21.5
2018-09-20T02:31:28.895Z,21.5
2018-09-20T02:32:18.730Z,21.5
2018-09-20T02:33:09.913Z,21.5
2018-09-20T02:33:58.942Z,21.5
2018-09-20T02:34:48.645Z,21.5
2018-09-20T02:35:39.288Z,21.4
2018-09-20T02:36:29.314Z,21.4
2018-09-20T02:37:19.392Z,21.4
2018-09-20T02:38:09.412Z,21.4
2018-09-20T02:38:59.475Z,21.4
2018-09-20T02:39:49.602Z,21.4
2018-09-20T02:40:39.151Z,21.4
2018-09-20T02:41:29.400Z,21.5
2018-09-20T02:42:19.488Z,21.4
2018-09-20T02:43:08.902Z,21.4
2018-09-20T02:43:59.915Z,21.4
2018-09-20T02:44:49.451Z,21.4
2018-09-20T02:45:39.984Z,21.4
2018-09-20T02:46:30.342Z,21.4
2018-09-20T02:47:19.759Z,21.4
2018-09-20T02:48:10.535Z,21.4
2018-09-20T02:49:00.259Z,21.4
2018-09-20T02:49:49.732Z,21.4
2018-09-20T02:50:40.407Z,21.4
2018-09-20T02:51:29.924Z,21.4
2018-09-20T02:52:19.356Z,21.4
2018-09-20T02:53:10.886Z,21.4
2018-09-20T02:54:00.612Z,21.4
2018-09-20T02:54:50.084Z,21.4
2018-09-20T02:55:40.840Z,21.4
2018-09-20T02:56:29.931Z,21.4
2018-09-20T02:57:20.572Z,21.4
2018-09-20T02:58:10.699Z,21.4
2018-09-20T02:59:02.545Z,21.4
2018-09-20T02:59:51.043Z,21.4
2018-09-20T03:00:40.553Z,21.4
2018-09-20T03:01:30.606Z,21.4
2018-09-20T03:02:21.207Z,21.4
2018-09-20T03:03:11.278Z,21.4
2018-09-20T03:04:01.668Z,21.4
2018-09-20T03:04:50.292Z,21.4
2018-09-20T03:05:40.885Z,21.4
2018-09-20T03:06:31.899Z,21.4
2018-09-20T03:07:21.310Z,21.4
2018-09-20T03:08:11.923Z,21.4
2018-09-20T03:09:00.846Z,21.4
2018-09-20T03:09:52.132Z,21.4
2018-09-20T03:10:41.555Z,21.3
2018-09-20T03:11:32.234Z,21.4
2018-09-20T03:12:21.415Z,21.4
2018-09-20T03:13:14.057Z,21.4
2018-09-20T03:14:01.862Z,21.4
2018-09-20T03:14:51.947Z,21.4
2018-09-20T03:15:41.957Z,21.3
2018-09-20T03:16:32.577Z,21.3
2018-09-20T03:17:22.674Z,21.4
2018-09-20T03:18:12.133Z,21.4
2018-09-20T03:19:03.084Z,21.3
2018-09-20T03:19:52.837Z,21.4
2018-09-20T03:20:43.116Z,21.3
2018-09-20T03:21:32.402Z,21.3
2018-09-20T03:22:22.417Z,21.4
2018-09-20T03:23:12.819Z,21.3
2018-09-20T03:24:02.901Z,21.3
2018-09-20T03:24:52.957Z,21.3
2018-09-20T03:25:43.586Z,21.3
2018-09-20T03:26:32.759Z,21.3
2018-09-20T03:27:22.534Z,21.3
2018-09-20T03:28:13.511Z,21.3
2018-09-20T03:29:02.674Z,21.3
2018-09-20T03:29:53.001Z,21.3
2018-09-20T03:30:47.058Z,21.3
2018-09-20T03:31:33.771Z,21.3
2018-09-20T03:32:23.644Z,21.3
2018-09-20T03:33:13.909Z,21.3
2018-09-20T03:34:03.582Z,21.3
2018-09-20T03:34:53.779Z,21.3
2018-09-20T03:35:44.819Z,21.3
2018-09-20T03:36:33.766Z,21.3
2018-09-20T03:37:23.918Z,21.3
2018-09-20T03:38:13.357Z,21.3
2018-09-20T03:39:04.040Z,21.2
2018-09-20T03:39:53.832Z,21.2
2018-09-20T03:40:44.087Z,21.2
2018-09-20T03:41:33.885Z,21.2
2018-09-20T03:42:23.938Z,21.2
2018-09-20T03:43:13.721Z,21.2
2018-09-20T03:44:53.865Z,21.2
2018-09-20T03:45:44.168Z,21.2
2018-09-20T03:46:34.577Z,21.2
2018-09-20T03:51:35.140Z,21.1
2018-09-20T03:54:04.512Z,21.2
2018-09-20T03:54:55.172Z,21.2
2018-09-20T03:55:45.542Z,21.2
2018-09-20T03:56:36.107Z,21.2
2018-09-20T03:57:24.825Z,21.2
2018-09-20T03:58:15.389Z,21.2
2018-09-20T04:06:36.389Z,21.1
2018-09-20T04:07:26.314Z,21.1
2018-09-20T04:08:16.131Z,21.1
2018-09-20T04:09:05.374Z,21.1
2018-09-20T04:09:57.372Z,21.1
2018-09-20T04:10:46.034Z,21.1
2018-09-20T04:11:36.120Z,21.1
2018-09-20T04:12:26.206Z,21
2018-09-20T04:13:16.797Z,21
2018-09-20T04:14:06.568Z,21
2018-09-20T04:14:56.727Z,21
2018-09-20T04:15:46.752Z,21.1
2018-09-20T04:16:37.021Z,21
2018-09-20T04:17:26.859Z,21
2018-09-20T04:18:16.582Z,21
2018-09-20T04:19:06.642Z,21
2018-09-20T04:19:56.475Z,21
2018-09-20T04:20:47.379Z,21
2018-09-20T04:21:36.879Z,21
2018-09-20T04:22:26.097Z,21
2018-09-20T04:23:17.749Z,21
2018-09-20T04:24:07.313Z,21
2018-09-20T04:24:57.692Z,21
2018-09-20T04:25:47.469Z,21
2018-09-20T04:26:36.401Z,20.9
2018-09-20T04:27:27.549Z,20.9
2018-09-20T04:28:16.779Z,20.9
2018-09-20T04:29:07.676Z,20.9
2018-09-20T04:29:57.846Z,20.9
2018-09-20T04:30:47.594Z,20.9
2018-09-20T04:31:38.876Z,20.9
2018-09-20T04:32:28.021Z,20.9
2018-09-20T04:33:18.668Z,20.9
2018-09-20T04:34:07.286Z,20.9
2018-09-20T04:34:58.199Z,20.9
2018-09-20T04:35:48.631Z,20.9
2018-09-20T04:36:37.747Z,20.9
2018-09-20T04:37:28.354Z,20.9
2018-09-20T04:38:18.977Z,20.9
2018-09-20T04:39:08.736Z,20.9
2018-09-20T04:39:58.232Z,20.9
2018-09-20T04:40:47.973Z,21
2018-09-20T04:41:38.415Z,20.9
2018-09-20T04:42:28.963Z,21
2018-09-20T04:43:19.007Z,20.9
2018-09-20T04:44:08.523Z,21
2018-09-20T04:44:58.588Z,20.9
2018-09-20T04:45:49.359Z,20.9
2018-09-20T04:46:38.211Z,20.9
2018-09-20T04:47:29.368Z,20.9
2018-09-20T04:48:18.848Z,20.9
2018-09-20T04:49:08.635Z,21
2018-09-20T04:49:59.535Z,21
2018-09-20T04:50:48.996Z,20.9
2018-09-20T04:51:39.711Z,20.9
2018-09-20T04:52:29.668Z,21
2018-09-20T04:53:20.783Z,21
2018-09-20T04:54:09.621Z,21
2018-09-20T04:54:58.768Z,21
2018-09-20T04:55:49.408Z,21
2018-09-20T04:56:40.047Z,21
2018-09-20T04:57:29.552Z,21
2018-09-20T04:58:19.739Z,21
2018-09-20T04:59:10.213Z,21
2018-09-20T05:00:00.654Z,21
2018-09-20T05:00:50.638Z,21
2018-09-20T05:01:40.123Z,21
2018-09-20T05:02:29.597Z,21
2018-09-20T05:03:21.087Z,21
2018-09-20T05:04:10.029Z,21
2018-09-20T05:05:00.088Z,21
2018-09-20T05:05:50.148Z,21
2018-09-20T05:06:40.171Z,21
2018-09-20T05:07:30.240Z,21
2018-09-20T05:25:26.606Z,20.9
2018-09-20T05:26:16.371Z,20.9
2018-09-20T05:27:06.356Z,20.9
2018-09-20T05:27:56.433Z,20.9
2018-09-20T05:28:46.211Z,20.9
2018-09-20T05:29:36.373Z,20.9
2018-09-20T05:30:26.183Z,20.9
2018-09-20T05:31:16.140Z,20.9
2018-09-20T05:32:06.524Z,20.9
2018-09-20T05:32:56.026Z,20.9
2018-09-20T05:33:46.285Z,20.9
2018-09-20T05:34:36.475Z,20.9
2018-09-20T05:35:28.487Z,20.9
2018-09-20T05:36:16.770Z,21
2018-09-20T05:37:07.507Z,21
2018-09-20T05:37:56.955Z,21
2018-09-20T05:38:46.177Z,21
2018-09-20T05:39:37.627Z,21
2018-09-20T05:40:26.585Z,21
2018-09-20T05:41:17.220Z,21
2018-09-20T05:42:06.947Z,21.1
2018-09-20T05:42:57.019Z,21.1
2018-09-20T05:43:47.755Z,21.1
2018-09-20T05:44:37.980Z,21.1
2018-09-20T05:45:27.248Z,21.1
2018-09-20T05:46:18.295Z,21.1
2018-09-20T05:47:07.667Z,21.1
2018-09-20T05:47:57.380Z,21.1
2018-09-20T05:52:57.795Z,21.2
2018-09-20T05:53:48.184Z,21.2
2018-09-20T05:54:39.389Z,21.2
2018-09-20T05:55:29.605Z,21.2
2018-09-20T05:56:19.030Z,21.3
2018-09-20T05:57:08.669Z,21.3
2018-09-20T05:57:58.794Z,21.3
2018-09-20T05:58:49.147Z,21.2
2018-09-20T05:59:38.563Z,21.2
2018-09-20T06:00:28.678Z,21.2
2018-09-20T06:01:18.920Z,21.2
2018-09-20T06:02:08.707Z,21.2
2018-09-20T06:02:59.423Z,21.2
2018-09-20T06:03:48.854Z,21.2
2018-09-20T06:04:39.077Z,21.2
2018-09-20T06:05:29.198Z,21.3
2018-09-20T06:06:19.644Z,21.3
2018-09-20T06:07:08.833Z,21.3
2018-09-20T06:07:59.792Z,21.3
2018-09-20T06:08:49.885Z,21.2
2018-09-20T06:09:39.566Z,21.2
2018-09-20T06:10:30.191Z,21.2
2018-09-20T06:11:19.753Z,21.3
2018-09-20T06:12:10.109Z,21.3
2018-09-20T06:12:59.565Z,21.3
2018-09-20T06:13:49.446Z,21.4
2018-09-20T06:14:40.278Z,21.4
2018-09-20T06:15:29.723Z,21.4
2018-09-20T06:16:20.375Z,21.4
2018-09-20T06:17:10.186Z,21.4
2018-09-20T06:18:00.535Z,21.4
2018-09-20T06:18:50.018Z,21.4
2018-09-20T06:19:39.720Z,21.4
2018-09-20T06:20:30.066Z,21.4
2018-09-20T06:21:19.853Z,21.4
2018-09-20T06:22:10.295Z,21.4
2018-09-20T06:23:00.320Z,21.5
2018-09-20T06:23:50.609Z,21.5
2018-09-20T06:24:41.025Z,21.5
2018-09-20T06:25:30.632Z,21.5
2018-09-20T06:26:21.094Z,21.6
2018-09-20T06:27:10.935Z,21.6
2018-09-20T06:28:01.244Z,21.5
2018-09-20T06:28:50.767Z,21.5
2018-09-20T06:29:40.667Z,21.5
2018-09-20T06:30:30.677Z,21.5
2018-09-20T06:31:21.267Z,21.5
2018-09-20T06:32:10.788Z,21.5
2018-09-20T06:33:01.097Z,21.4
2018-09-20T06:33:51.709Z,21.4
2018-09-20T06:34:40.998Z,21.4
2018-09-20T06:35:31.818Z,21.4
2018-09-20T06:36:20.759Z,21.5
2018-09-20T06:37:12.012Z,21.5
2018-09-20T06:38:01.732Z,21.5
2018-09-20T06:38:51.744Z,21.5
2018-09-20T06:39:41.599Z,21.6
2018-09-20T06:40:32.009Z,21.6
2018-09-20T06:41:21.707Z,21.6
2018-09-20T06:42:11.356Z,21.6
2018-09-20T06:43:02.085Z,21.6
2018-09-20T06:43:51.882Z,21.6
2018-09-20T06:44:42.204Z,21.6
2018-09-20T06:45:30.804Z,21.6
2018-09-20T06:46:22.608Z,21.6
2018-09-20T06:47:12.406Z,21.7
2018-09-20T06:48:02.261Z,21.7
2018-09-20T06:48:52.883Z,21.7
2018-09-20T06:49:43.116Z,21.7
2018-09-20T06:50:33.433Z,21.7
2018-09-20T06:51:23.286Z,21.7
2018-09-20T06:52:13.143Z,21.7
2018-09-20T06:53:02.913Z,21.8
2018-09-20T06:53:52.915Z,21.8
2018-09-20T06:54:42.338Z,21.8
2018-09-20T06:55:33.081Z,21.8
2018-09-20T06:56:23.151Z,21.8
2018-09-20T06:57:12.281Z,21.8
2018-09-20T06:58:03.498Z,21.8
2018-09-20T06:58:53.343Z,21.8
2018-09-20T06:59:43.349Z,21.8
2018-09-20T07:00:32.818Z,21.8
2018-09-20T07:01:22.858Z,21.8
2018-09-20T07:02:13.618Z,21.8
2018-09-20T07:03:04.868Z,21.9
2018-09-20T07:03:52.841Z,21.9
2018-09-20T07:04:42.903Z,22
2018-09-20T07:05:34.157Z,22
2018-09-20T07:06:23.348Z,22.1
2018-09-20T07:07:13.912Z,22.1
2018-09-20T07:08:03.791Z,22.1
2018-09-20T07:08:54.110Z,22.2
2018-09-20T07:09:44.361Z,22.2
2018-09-20T07:10:34.181Z,22.3
2018-09-20T07:11:24.555Z,22.3
2018-09-20T07:12:14.679Z,22.3
2018-09-20T07:13:04.384Z,22.3
2018-09-20T07:13:54.817Z,22.3
2018-09-20T07:14:43.943Z,22.3
2018-09-20T07:15:34.075Z,22.4
2018-09-20T07:16:24.139Z,22.3
2018-09-20T07:17:14.711Z,22.4
2018-09-20T07:18:05.299Z,22.3
2018-09-20T07:18:55.182Z,22.4
2018-09-20T07:19:44.423Z,22.3
2018-09-20T07:20:35.281Z,22.4
2018-09-20T07:21:25.077Z,22.4
2018-09-20T07:22:14.494Z,22.4
2018-09-20T07:23:04.265Z,22.4
2018-09-20T07:23:55.479Z,22.3
2018-09-20T07:24:45.307Z,22.4
2018-09-20T07:25:36.014Z,22.4
2018-09-20T07:26:24.749Z,22.4
2018-09-20T07:27:15.776Z,22.4
2018-09-20T07:28:05.214Z,22.4
2018-09-20T07:28:55.255Z,22.4
2018-09-20T07:29:45.954Z,22.4
2018-09-20T07:30:35.921Z,22.5
2018-09-20T07:31:25.031Z,22.5
2018-09-20T07:32:15.489Z,22.6
2018-09-20T07:33:05.872Z,22.6
2018-09-20T07:33:55.864Z,22.6
2018-09-20T07:34:45.994Z,22.6
2018-09-20T07:35:36.308Z,22.6
2018-09-20T07:36:25.883Z,22.6
2018-09-20T07:37:16.363Z,22.6
2018-09-20T07:38:05.470Z,22.6
2018-09-20T07:38:55.756Z,22.6
2018-09-20T07:39:46.258Z,22.6
2018-09-20T07:40:36.163Z,22.6
2018-09-20T07:41:26.446Z,22.6
2018-09-20T07:42:16.785Z,22.6
2018-09-20T07:43:06.524Z,22.6
2018-09-20T07:43:55.797Z,22.7
2018-09-20T07:44:46.960Z,22.7
2018-09-20T07:45:36.465Z,22.7
2018-09-20T07:46:26.553Z,22.7
2018-09-20T07:47:17.325Z,22.8
2018-09-20T07:48:06.383Z,22.8
2018-09-20T07:48:56.995Z,22.8
2018-09-20T07:49:46.897Z,22.8
2018-09-20T07:50:37.125Z,22.8
2018-09-20T07:51:27.153Z,22.8
2018-09-20T07:52:17.518Z,22.8
2018-09-20T07:53:07.037Z,22.8
2018-09-20T07:53:58.624Z,22.8
2018-09-20T07:54:47.502Z,22.8
2018-09-20T07:55:37.557Z,22.8
2018-09-20T07:56:27.326Z,22.8
2018-09-20T07:57:18.004Z,22.8
2018-09-20T07:58:07.705Z,22.8
2018-09-20T07:58:57.426Z,22.8
2018-09-20T07:59:48.364Z,22.8
2018-09-20T08:00:37.409Z,22.8
2018-09-20T08:01:26.724Z,22.9
2018-09-20T08:02:17.722Z,22.9
2018-09-20T08:03:08.508Z,22.8
2018-09-20T08:03:59.598Z,22.8
2018-09-20T08:04:49.039Z,22.8
2018-09-20T08:05:39.265Z,22.8
2018-09-20T08:06:28.606Z,22.8
2018-09-20T08:07:20.009Z,22.9
2018-09-20T08:08:08.509Z,22.8
2018-09-20T08:08:58.508Z,22.8
2018-09-20T08:09:47.738Z,22.9
2018-09-20T08:10:38.284Z,22.9
2018-09-20T08:11:28.691Z,22.9
2018-09-20T08:12:18.794Z,22.9
2018-09-20T08:13:09.874Z,22.9
2018-09-20T08:13:59.157Z,22.9
2018-09-20T08:14:48.456Z,22.9
2018-09-20T08:15:38.738Z,23
2018-09-20T08:16:28.323Z,23
2018-09-20T08:17:19.383Z,23
2018-09-20T08:18:08.879Z,23
2018-09-20T08:19:01.708Z,23
2018-09-20T08:19:49.053Z,23
2018-09-20T08:20:39.163Z,23
2018-09-20T08:21:29.963Z,23
2018-09-20T08:22:18.952Z,23
2018-09-20T08:23:09.264Z,23
2018-09-20T08:24:00.133Z,23
2018-09-20T08:24:49.438Z,23
2018-09-20T08:25:39.840Z,23
2018-09-20T08:26:28.953Z,23
2018-09-20T08:27:19.670Z,23
2018-09-20T08:28:10.515Z,23.1
2018-09-20T08:29:00.365Z,23
2018-09-20T08:29:50.115Z,23.1
2018-09-20T08:30:39.835Z,23.1
2018-09-20T08:31:30.496Z,23.1
2018-09-20T08:32:20.582Z,23.1
2018-09-20T08:33:10.334Z,23.1
2018-09-20T08:34:00.618Z,23.1
2018-09-20T08:34:50.462Z,23.1
2018-09-20T08:35:40.267Z,23.1
2018-09-20T08:36:30.970Z,23.1
2018-09-20T08:37:20.936Z,23.1
2018-09-20T08:38:10.729Z,23.1
2018-09-20T08:39:00.254Z,23.1
2018-09-20T08:39:50.521Z,23.2
2018-09-20T08:40:40.889Z,23.2
2018-09-20T08:41:30.931Z,23.2
2018-09-20T08:42:21.809Z,23.2
2018-09-20T08:43:10.556Z,23.2
2018-09-20T08:44:00.975Z,23.2
2018-09-20T08:44:51.376Z,23.2
2018-09-20T08:45:41.019Z,23.3
2018-09-20T08:46:30.746Z,23.2
2018-09-20T08:47:21.382Z,23.2
2018-09-20T08:48:12.980Z,23.2
2018-09-20T08:49:01.266Z,23.3
2018-09-20T08:49:51.363Z,23.2
2018-09-20T08:50:41.546Z,23.3
2018-09-20T08:51:31.532Z,23.3
2018-09-20T08:52:21.744Z,23.3
2018-09-20T08:53:11.311Z,23.3
2018-09-20T08:54:02.156Z,23.3
2018-09-20T08:54:52.523Z,23.3
2018-09-20T08:55:42.058Z,23.3
2018-09-20T08:56:32.449Z,23.3
2018-09-20T08:57:23.414Z,23.3
2018-09-20T08:58:11.985Z,23.3
2018-09-20T08:59:02.003Z,23.3
2018-09-20T08:59:52.383Z,23.3
2018-09-20T09:00:41.355Z,23.3
2018-09-20T09:01:32.463Z,23.3
2018-09-20T09:02:22.093Z,23.3
2018-09-20T09:03:12.613Z,23.3
2018-09-20T09:04:02.357Z,23.3
2018-09-20T09:04:52.728Z,23.3
2018-09-20T09:05:43.150Z,23.4
2018-09-20T09:06:32.843Z,23.4
2018-09-20T09:07:22.930Z,23.4
2018-09-20T09:08:13.002Z,23.4
2018-09-20T09:09:03.305Z,23.4
2018-09-20T09:09:53.457Z,23.4
2018-09-20T09:10:43.184Z,23.4
2018-09-20T09:11:33.025Z,23.4
2018-09-20T09:12:23.289Z,23.4
2018-09-20T09:13:13.600Z,23.4
2018-09-20T09:14:03.401Z,23.4
2018-09-20T09:14:53.742Z,23.4
2018-09-20T09:15:43.554Z,23.4
2018-09-20T09:16:33.677Z,23.4
2018-09-20T09:17:23.424Z,23.4
2018-09-20T09:18:14.017Z,23.4
2018-09-20T09:19:03.267Z,23.4
2018-09-20T09:19:53.934Z,23.4
2018-09-20T09:20:43.694Z,23.4
2018-09-20T09:21:33.430Z,23.4
2018-09-20T09:22:23.812Z,23.4
2018-09-20T09:23:14.154Z,23.4
2018-09-20T09:40:06.743Z,23.4
2018-09-20T09:40:55.766Z,23.4
2018-09-20T09:41:46.823Z,23.4
2018-09-20T09:42:36.390Z,23.4
2018-09-20T09:43:26.808Z,23.4
2018-09-20T09:44:16.888Z,23.4
2018-09-20T09:45:07.368Z,23.4
2018-09-20T09:45:56.892Z,23.4
2018-09-20T09:46:46.527Z,23.4
2018-09-20T09:47:36.192Z,23.4
2018-09-20T09:48:27.148Z,23.5
2018-09-20T09:49:17.445Z,23.5
2018-09-20T09:50:07.197Z,23.5
2018-09-20T09:50:57.392Z,23.5
2018-09-20T09:51:47.072Z,23.5
2018-09-20T09:52:37.729Z,23.6
2018-09-20T09:53:27.819Z,23.5
2018-09-20T09:54:17.818Z,23.6
2018-09-20T09:55:07.975Z,23.6
2018-09-20T09:55:57.352Z,23.6
2018-09-20T09:56:47.772Z,23.6
2018-09-20T09:57:38.084Z,23.6
2018-09-20T09:58:27.583Z,23.6
2018-09-20T09:59:17.949Z,23.6
2018-09-20T10:00:08.054Z,23.6
2018-09-20T10:00:58.396Z,23.6
2018-09-20T10:01:47.832Z,23.6
2018-09-20T10:02:40.327Z,23.6
2018-09-20T10:03:28.277Z,23.6
2018-09-20T10:04:18.099Z,23.6
2018-09-20T10:05:08.424Z,23.6
2018-09-20T10:05:58.239Z,23.6
2018-09-20T10:06:47.831Z,23.6
2018-09-20T10:07:36.932Z,23.6
2018-09-20T10:08:28.631Z,23.6
2018-09-20T10:09:19.031Z,23.7
2018-09-20T10:10:08.836Z,23.7
2018-09-20T10:10:58.838Z,23.7
2018-09-20T10:11:48.910Z,23.7
2018-09-20T10:12:38.098Z,23.7
2018-09-20T10:13:30.862Z,23.7
2018-09-20T10:14:18.869Z,23.7
2018-09-20T10:15:07.561Z,23.7
2018-09-20T10:15:59.466Z,23.7
2018-09-20T10:16:49.036Z,23.7
2018-09-20T10:17:38.766Z,23.7
2018-09-20T10:18:28.845Z,23.7
2018-09-20T10:19:19.996Z,23.7
2018-09-20T10:20:10.310Z,23.8
2018-09-20T10:20:59.906Z,23.8
2018-09-20T10:21:49.134Z,23.8
2018-09-20T10:22:40.010Z,23.8
2018-09-20T10:23:29.220Z,23.8
2018-09-20T10:24:20.146Z,23.8
2018-09-20T10:25:09.943Z,23.8
2018-09-20T10:26:00.085Z,23.8
2018-09-20T10:26:50.083Z,23.8
2018-09-20T10:27:40.102Z,23.8
2018-09-20T10:28:30.488Z,23.8
2018-09-20T10:29:20.313Z,23.8
2018-09-20T10:30:10.312Z,23.8
2018-09-20T10:31:00.225Z,23.8
2018-09-20T10:31:50.118Z,23.8
2018-09-20T10:32:40.788Z,23.8
2018-09-20T10:33:30.548Z,23.8
2018-09-20T10:34:20.043Z,23.8
2018-09-20T10:35:09.616Z,23.8
2018-09-20T10:36:00.248Z,23.8
2018-09-20T10:36:51.065Z,23.8
2018-09-20T10:37:41.185Z,23.8
2018-09-20T10:38:30.966Z,23.8
2018-09-20T10:39:20.716Z,23.8
2018-09-20T10:40:11.060Z,23.8
2018-09-20T10:41:00.799Z,23.8
2018-09-20T10:41:50.898Z,23.8
2018-09-20T10:42:41.250Z,23.8
2018-09-20T10:43:31.027Z,23.8
2018-09-20T10:44:21.665Z,23.8
2018-09-20T10:45:11.755Z,23.8
2018-09-20T10:46:01.767Z,23.8
2018-09-20T10:46:51.329Z,23.8
2018-09-20T10:47:41.983Z,23.8
2018-09-20T10:48:31.117Z,23.8
2018-09-20T10:49:21.228Z,23.8
2018-09-20T10:50:11.256Z,23.8
2018-09-20T10:51:01.931Z,23.8
2018-09-20T10:51:52.270Z,23.8
2018-09-20T10:52:41.992Z,23.8
2018-09-20T10:53:32.354Z,23.8
2018-09-20T10:54:22.397Z,23.9
2018-09-20T10:55:11.879Z,23.9
2018-09-20T10:56:01.149Z,23.8
2018-09-20T10:56:52.682Z,23.8
2018-09-20T10:57:42.373Z,23.9
2018-09-20T10:58:32.151Z,23.8
2018-09-20T10:59:21.936Z,23.9
2018-09-20T11:00:12.886Z,23.9
2018-09-20T11:01:02.589Z,23.9
2018-09-20T11:01:52.739Z,23.9
2018-09-20T11:02:42.874Z,23.9
2018-09-20T11:03:33.774Z,23.9
2018-09-20T11:04:22.886Z,23.9
2018-09-20T11:05:13.244Z,23.9
2018-09-20T11:06:03.573Z,23.9
2018-09-20T11:06:52.256Z,23.9
2018-09-20T11:07:42.614Z,23.9
2018-09-20T11:08:33.510Z,23.9
2018-09-20T11:09:22.996Z,23.9
2018-09-20T11:10:13.402Z,23.9
2018-09-20T11:11:04.952Z,23.9
2018-09-20T11:11:53.496Z,23.9
2018-09-20T11:12:44.036Z,23.9
2018-09-20T11:13:33.333Z,23.9
2018-09-20T11:14:23.356Z,23.9
2018-09-20T11:15:13.698Z,23.9
2018-09-20T11:16:03.861Z,23.9
2018-09-20T11:16:53.641Z,23.9
2018-09-20T11:17:43.655Z,23.9
2018-09-20T11:18:34.480Z,23.9
2018-09-20T11:19:24.002Z,23.9
2018-09-20T11:20:13.659Z,23.9
2018-09-20T11:21:03.910Z,23.9
2018-09-20T11:21:54.545Z,23.9
2018-09-20T11:22:44.019Z,23.9
2018-09-20T11:23:34.040Z,23.9
2018-09-20T11:24:24.695Z,23.9
2018-09-20T11:25:14.760Z,23.9
2018-09-20T11:26:06.236Z,23.9
2018-09-20T11:26:54.610Z,23.9
2018-09-20T11:27:45.022Z,23.9
2018-09-20T11:28:34.712Z,23.9
2018-09-20T11:29:25.315Z,24
2018-09-20T11:30:14.852Z,23.9
2018-09-20T11:31:04.938Z,23.9
2018-09-20T11:31:55.279Z,23.9
2018-09-20T11:32:45.297Z,24
2018-09-20T11:33:35.405Z,24
2018-09-20T11:34:25.184Z,23.9
2018-09-20T11:35:15.511Z,24
2018-09-20T11:36:05.297Z,24
2018-09-20T11:36:55.118Z,23.9
2018-09-20T11:37:46.006Z,24
2018-09-20T11:38:35.475Z,24
2018-09-20T11:39:25.276Z,24
2018-09-20T11:40:14.829Z,24
2018-09-20T11:41:05.418Z,24
2018-09-20T11:41:56.083Z,24
2018-09-20T11:42:45.799Z,24
2018-09-20T11:43:36.594Z,24
2018-09-20T11:44:26.277Z,24
2018-09-20T11:45:15.825Z,24
2018-09-20T11:46:06.136Z,24
2018-09-20T11:46:56.473Z,24
2018-09-20T11:47:46.451Z,24
2018-09-20T11:48:35.696Z,24
2018-09-20T16:40:42.368Z,23.7
2018-09-20T16:41:32.963Z,23.7
2018-09-20T16:42:21.976Z,23.7
2018-09-20T16:43:11.482Z,23.7
2018-09-20T16:44:02.139Z,23.7
2018-09-20T16:44:52.078Z,23.7
2018-09-20T16:45:42.772Z,23.7
2018-09-20T16:46:32.748Z,23.7
2018-09-20T16:47:22.555Z,23.7
2018-09-20T16:48:13.208Z,23.6
2018-09-20T16:49:03.273Z,23.7
2018-09-20T16:49:52.765Z,23.7
2018-09-20T16:50:43.112Z,23.7
2018-09-20T16:51:33.430Z,23.7
2018-09-20T16:52:23.497Z,23.7
2018-09-20T16:53:15.367Z,23.8
2018-09-20T16:54:03.136Z,23.8
2018-09-20T16:54:53.433Z,23.8
2018-09-20T16:55:42.679Z,23.8
2018-09-20T16:56:33.568Z,23.8
2018-09-20T16:57:23.018Z,23.8
2018-09-20T16:58:13.650Z,23.8
2018-09-20T16:59:03.964Z,23.8
2018-09-20T16:59:53.805Z,23.8
2018-09-20T17:00:43.040Z,23.8
2018-09-20T17:01:34.024Z,23.8
2018-09-20T17:02:23.774Z,23.8
2018-09-20T17:03:13.767Z,23.7
2018-09-20T17:04:03.534Z,23.7
2018-09-20T17:04:53.595Z,23.8
2018-09-20T17:05:43.984Z,23.7
2018-09-20T17:06:34.104Z,23.8
2018-09-20T17:07:24.579Z,23.8
2018-09-20T17:08:13.864Z,23.8
2018-09-20T17:09:03.872Z,23.8
2018-09-20T17:09:54.553Z,23.8
2018-09-20T17:10:44.689Z,23.8
2018-09-20T17:11:34.254Z,23.8
2018-09-20T17:12:24.284Z,23.8
2018-09-20T17:13:14.582Z,23.8
2018-09-20T17:14:04.424Z,23.8
2018-09-20T17:14:56.954Z,23.8
2018-09-20T17:15:44.771Z,23.8
2018-09-20T17:16:35.235Z,23.8
2018-09-20T17:17:24.327Z,23.8
2018-09-20T17:18:15.501Z,23.7
2018-09-20T17:19:05.311Z,23.8
2018-09-20T17:19:55.897Z,23.8
2018-09-20T17:20:44.828Z,23.8
2018-09-20T17:21:35.456Z,23.7
2018-09-20T17:22:24.989Z,23.7
2018-09-20T17:23:15.011Z,23.7
2018-09-20T17:24:05.948Z,23.7
2018-09-20T17:24:55.380Z,23.8
2018-09-20T17:25:45.788Z,23.8
2018-09-20T17:26:35.811Z,23.7
2018-09-20T17:27:25.590Z,23.7
2018-09-20T17:28:15.426Z,23.7
2018-09-20T17:29:06.288Z,23.7
2018-09-20T17:29:56.099Z,23.7
2018-09-20T17:30:45.853Z,23.7
2018-09-20T17:31:35.979Z,23.7
2018-09-20T17:32:26.599Z,23.7
2018-09-20T17:33:15.807Z,23.8
2018-09-20T17:34:05.820Z,23.8
2018-09-20T17:34:56.390Z,23.8
2018-09-20T17:35:46.787Z,23.8
2018-09-20T17:36:36.825Z,23.8
2018-09-20T17:37:26.603Z,23.8
2018-09-20T17:38:16.505Z,23.8
2018-09-20T17:39:04.779Z,23.8
2018-09-20T17:39:55.502Z,23.8
2018-09-20T17:40:45.094Z,23.8
2018-09-20T17:41:36.024Z,23.7
2018-09-20T17:42:25.187Z,23.6
2018-09-20T17:43:15.108Z,23.6
2018-09-20T17:44:05.803Z,23.6
2018-09-20T17:44:55.832Z,23.6
2018-09-20T17:45:45.717Z,23.6
2018-09-20T17:46:36.004Z,23.6
2018-09-20T17:47:27.945Z,23.6
2018-09-20T17:48:17.992Z,23.6
2018-09-20T17:49:07.007Z,23.6
2018-09-20T17:49:57.570Z,23.6